createdAt,value
2023-03-07T00:01:48.365Z,17.25
2023-03-07T00:04:15.380Z,17.75
2023-03-07T00:06:42.307Z,14.50
2023-03-07T00:09:09.814Z,13.00
2023-03-07T00:11:36.686Z,24.50
2023-03-07T00:14:07.754Z,34.25
2023-03-07T00:16:34.720Z,25.25
2023-03-07T00:19:01.561Z,25.00
2023-03-07T00:21:31.437Z,33.50
2023-03-07T00:23:58.353Z,19.75
2023-03-07T00:26:26.640Z,26.50
2023-03-07T00:28:55.237Z,30.50
2023-03-07T00:31:23.250Z,18.75
2023-03-07T00:33:50.504Z,33.75
2023-03-07T00:36:20.802Z,29.75
2023-03-07T00:38:48.047Z,34.25
2023-03-07T00:41:17.823Z,35.00
2023-03-07T00:43:47.145Z,23.00
2023-03-07T00:46:18.768Z,28.25
2023-03-07T00:48:46.005Z,23.00
2023-03-07T00:51:16.632Z,26.50
2023-03-07T00:53:44.320Z,25.25
2023-03-07T00:56:22.231Z,21.00
2023-03-07T00:58:49.577Z,16.25
2023-03-07T01:01:19.984Z,15.00
2023-03-07T01:03:49.786Z,16.25
2023-03-07T01:06:19.660Z,16.25
2023-03-07T01:08:47.136Z,19.50
2023-03-07T01:11:15.781Z,16.25
2023-03-07T01:13:43.259Z,26.00
2023-03-07T01:16:22.337Z,37.25
2023-03-07T01:18:51.920Z,28.25
2023-03-07T01:21:24.977Z,29.50
2023-03-07T01:23:52.981Z,30.75
2023-03-07T01:26:25.791Z,28.25
2023-03-07T01:28:54.664Z,31.25
2023-03-07T01:31:22.342Z,16.00
2023-03-07T01:33:50.647Z,29.75
2023-03-07T01:36:25.494Z,34.00
2023-03-07T01:38:55.557Z,36.25
2023-03-07T01:41:22.782Z,29.25
2023-03-07T01:43:51.793Z,36.25
2023-03-07T01:46:38.887Z,30.25
2023-03-07T01:49:12.629Z,26.25
2023-03-07T01:51:43.617Z,19.00
2023-03-07T01:54:13.170Z,19.25
2023-03-07T01:56:43.193Z,9.50
2023-03-07T01:59:11.090Z,9.00
2023-03-07T02:01:38.184Z,12.25
2023-03-07T02:04:28.337Z,26.00
2023-03-07T02:06:55.257Z,13.25
2023-03-07T02:09:24.594Z,20.50
2023-03-07T02:11:52.299Z,42.50
2023-03-07T02:14:19.676Z,33.50
2023-03-07T02:16:46.621Z,34.00
2023-03-07T02:19:23.506Z,30.00
2023-03-07T02:22:03.187Z,30.50
2023-03-07T02:24:52.664Z,37.50
2023-03-07T02:27:20.393Z,34.25
2023-03-07T02:29:47.251Z,35.00
2023-03-07T02:32:14.920Z,14.25
2023-03-07T02:34:41.939Z,19.00
2023-03-07T02:37:21.683Z,18.75
2023-03-07T02:39:49.778Z,20.25
2023-03-07T02:42:25.501Z,16.00
2023-03-07T02:45:04.254Z,8.75
2023-03-07T02:47:34.020Z,8.50
2023-03-07T02:50:01.854Z,10.00
2023-03-07T02:52:29.898Z,13.50
2023-03-07T02:54:58.493Z,13.75
2023-03-07T02:57:29.468Z,20.25
2023-03-07T02:59:56.411Z,24.75
2023-03-07T03:02:23.184Z,29.25
2023-03-07T03:04:50.030Z,38.25
2023-03-07T03:07:16.964Z,36.75
2023-03-07T03:09:43.773Z,26.25
2023-03-07T03:12:10.585Z,40.25
2023-03-07T03:14:37.445Z,26.25
2023-03-07T03:17:04.984Z,19.00
2023-03-07T03:19:31.932Z,29.00
2023-03-07T03:21:58.834Z,25.50
2023-03-07T03:24:27.856Z,25.25
2023-03-07T03:26:58.421Z,22.00
2023-03-07T03:29:27.279Z,35.25
2023-03-07T03:31:58.025Z,31.00
2023-03-07T03:34:25.411Z,26.50
2023-03-07T03:36:52.546Z,28.75
2023-03-07T03:39:20.551Z,27.00
2023-03-07T03:41:51.466Z,30.75
2023-03-07T03:44:21.410Z,28.00
2023-03-07T03:46:48.774Z,24.00
2023-03-07T03:49:17.701Z,37.50
2023-03-07T03:51:47.645Z,31.25
2023-03-07T03:54:15.045Z,34.25
2023-03-07T03:56:42.461Z,36.25
2023-03-07T03:59:09.440Z,39.25
2023-03-07T04:01:36.359Z,35.00
2023-03-07T04:04:05.110Z,34.00
2023-03-07T04:06:34.779Z,35.00
2023-03-07T04:09:04.835Z,37.00
2023-03-07T04:11:33.093Z,37.00
2023-03-07T04:14:00.162Z,32.50
2023-03-07T04:16:27.420Z,31.00
2023-03-07T04:18:55.618Z,29.00
2023-03-07T04:21:23.000Z,28.50
2023-03-07T04:23:55.749Z,32.25
2023-03-07T04:26:24.592Z,35.00
2023-03-07T04:28:51.716Z,36.00
2023-03-07T04:31:33.968Z,30.75
2023-03-07T04:34:03.361Z,32.50
2023-03-07T04:36:30.870Z,39.25
2023-03-07T04:38:57.841Z,33.75
2023-03-07T04:41:29.044Z,35.50
2023-03-07T04:44:17.330Z,44.00
2023-03-07T04:46:44.319Z,40.25
2023-03-07T04:49:11.126Z,32.00
2023-03-07T04:51:39.573Z,41.00
2023-03-07T04:54:06.937Z,39.50
2023-03-07T04:56:33.974Z,44.75
2023-03-07T04:59:01.834Z,40.25
2023-03-07T05:01:28.834Z,31.75
2023-03-07T05:03:56.640Z,36.00
2023-03-07T05:06:23.961Z,35.50
2023-03-07T05:08:52.222Z,30.75
2023-03-07T05:11:19.361Z,37.25
2023-03-07T05:13:46.386Z,28.00
2023-03-07T05:16:17.853Z,35.25
2023-03-07T05:18:45.116Z,41.00
2023-03-07T05:21:12.512Z,44.75
2023-03-07T05:23:39.904Z,47.50
2023-03-07T05:26:07.916Z,41.75
2023-03-07T05:28:34.781Z,59.25
2023-03-07T05:31:02.149Z,56.25
2023-03-07T05:33:29.198Z,42.25
2023-03-07T05:35:59.820Z,54.00
2023-03-07T05:38:26.880Z,57.75
2023-03-07T05:40:53.914Z,55.25
2023-03-07T05:43:20.736Z,43.00
2023-03-07T05:45:47.535Z,45.25
2023-03-07T05:48:14.329Z,41.00
2023-03-07T05:50:42.696Z,46.25
2023-03-07T05:53:10.001Z,44.25
2023-03-07T05:55:36.807Z,50.75
2023-03-07T05:58:03.778Z,53.50
2023-03-07T06:00:30.722Z,53.00
2023-03-07T06:03:03.310Z,57.25
2023-03-07T06:05:31.091Z,49.00
2023-03-07T06:07:58.049Z,42.00
2023-03-07T06:10:25.791Z,45.75
2023-03-07T06:12:54.181Z,46.25
2023-03-07T06:15:24.287Z,40.50
2023-03-07T06:17:55.531Z,31.75
2023-03-07T06:20:22.382Z,37.00
2023-03-07T06:22:50.061Z,58.50
2023-03-07T06:25:17.084Z,42.50
2023-03-07T06:27:44.210Z,40.50
2023-03-07T06:30:13.704Z,55.75
2023-03-07T06:32:41.482Z,41.50
2023-03-07T06:35:09.658Z,39.00
2023-03-07T06:37:37.073Z,42.25
2023-03-07T06:40:06.411Z,41.75
2023-03-07T06:42:35.762Z,42.75
2023-03-07T06:45:04.323Z,50.00
2023-03-07T06:47:31.413Z,46.75
2023-03-07T06:49:58.702Z,58.50
2023-03-07T06:52:25.616Z,60.75
2023-03-07T06:54:52.739Z,67.50
2023-03-07T06:57:19.555Z,49.00
2023-03-07T06:59:46.421Z,55.50
2023-03-07T07:02:14.988Z,55.25
2023-03-07T07:04:41.924Z,55.75
2023-03-07T07:07:08.954Z,65.50
2023-03-07T07:09:36.049Z,63.25
2023-03-07T07:12:02.958Z,51.00
2023-03-07T07:14:30.366Z,42.00
2023-03-07T07:16:57.232Z,47.50
2023-03-07T07:19:24.140Z,57.75
2023-03-07T07:21:51.155Z,46.50
2023-03-07T07:24:18.006Z,54.75
2023-03-07T07:26:45.037Z,52.75
2023-03-07T07:29:12.005Z,48.00
2023-03-07T07:31:39.144Z,38.00
2023-03-07T07:34:06.002Z,42.25
2023-03-07T07:36:34.376Z,46.25
2023-03-07T07:39:06.378Z,41.75
2023-03-07T07:41:36.352Z,42.00
2023-03-07T07:44:03.387Z,51.50
2023-03-07T07:46:43.694Z,54.00
2023-03-07T07:49:11.002Z,57.75
2023-03-07T07:51:39.868Z,52.00
2023-03-07T07:54:07.826Z,46.00
2023-03-07T07:56:34.851Z,46.25
2023-03-07T07:59:01.746Z,55.00
2023-03-07T08:01:28.902Z,63.00
2023-03-07T08:03:55.766Z,55.00
2023-03-07T08:06:25.319Z,58.50
2023-03-07T08:08:52.209Z,57.00
2023-03-07T08:11:20.458Z,55.00
2023-03-07T08:13:47.284Z,61.00
2023-03-07T08:16:19.806Z,46.50
2023-03-07T08:18:52.238Z,49.50
2023-03-07T08:21:19.156Z,37.00
2023-03-07T08:23:46.044Z,40.00
2023-03-07T08:26:13.529Z,32.25
2023-03-07T08:28:41.533Z,30.25
2023-03-07T08:31:15.914Z,29.25
2023-03-07T08:33:43.236Z,33.00
2023-03-07T08:36:10.349Z,38.75
2023-03-07T08:38:37.214Z,37.00
2023-03-07T08:41:06.478Z,42.50
2023-03-07T08:43:36.490Z,39.00
2023-03-07T08:46:04.231Z,43.00
2023-03-07T08:48:31.606Z,37.00
2023-03-07T08:51:03.971Z,38.50
2023-03-07T08:53:30.780Z,63.25
2023-03-07T08:55:57.550Z,46.25
2023-03-07T08:58:24.546Z,35.25
2023-03-07T09:00:51.371Z,37.25
2023-03-07T09:03:18.190Z,28.25
2023-03-07T09:05:45.558Z,15.00
2023-03-07T09:08:13.191Z,20.00
2023-03-07T09:10:40.027Z,13.00
2023-03-07T09:13:06.895Z,7.00
2023-03-07T09:15:33.800Z,11.00
2023-03-07T09:18:00.591Z,8.33
2023-03-07T09:20:27.403Z,8.00
2023-03-07T09:22:54.346Z,4.00
2023-03-07T09:25:21.218Z,8.00
2023-03-07T09:27:48.255Z,12.00
2023-03-07T09:30:16.203Z,5.67
2023-03-07T09:32:43.118Z,5.50
2023-03-07T09:35:10.419Z,10.00
2023-03-07T09:37:37.338Z,10.00
2023-03-07T09:40:08.689Z,5.75
2023-03-07T09:43:01.259Z,22.00
2023-03-07T09:45:45.026Z,5.50
2023-03-07T09:48:33.997Z,4.00
2023-03-07T09:51:15.996Z,2.25
2023-03-07T09:53:57.958Z,4.25
2023-03-07T09:56:33.128Z,6.25
2023-03-07T09:59:33.953Z,18.33
2023-03-07T10:02:22.792Z,6.75
2023-03-07T10:05:10.231Z,6.00
2023-03-07T10:07:37.258Z,4.75
2023-03-07T10:10:13.885Z,10.00
2023-03-07T10:12:43.741Z,7.00
2023-03-07T10:15:16.792Z,14.00
2023-03-07T10:18:17.202Z,10.00
2023-03-07T10:20:56.103Z,7.33
2023-03-07T10:23:53.312Z,4.25
2023-03-07T10:26:33.864Z,12.33
2023-03-07T10:29:11.161Z,12.00
2023-03-07T10:31:41.017Z,6.75
2023-03-07T10:34:27.521Z,3.00
2023-03-07T10:37:21.254Z,8.00
2023-03-07T10:39:54.303Z,7.50
2023-03-07T10:42:23.566Z,5.50
2023-03-07T10:44:53.864Z,6.25
2023-03-07T10:47:28.487Z,5.25
2023-03-07T10:50:26.850Z,5.00
2023-03-07T10:52:57.579Z,3.00
2023-03-07T10:55:42.989Z,3.25
2023-03-07T10:58:14.758Z,5.00
2023-03-07T11:00:44.426Z,3.00
2023-03-07T11:03:55.806Z,4.25
2023-03-07T11:06:34.447Z,4.75
2023-03-07T11:09:29.125Z,5.00
2023-03-07T11:12:05.983Z,5.00
2023-03-07T11:15:09.527Z,2.00
2023-03-07T11:17:45.104Z,4.00
2023-03-07T11:20:27.645Z,3.50
2023-03-07T11:23:18.333Z,8.25
2023-03-07T11:25:45.420Z,3.25
2023-03-07T11:28:26.494Z,4.25
2023-03-07T11:30:57.232Z,4.00
2023-03-07T11:33:58.467Z,7.25
2023-03-07T11:36:35.653Z,6.00
2023-03-07T11:39:31.752Z,5.00
2023-03-07T11:42:08.279Z,5.00
2023-03-07T11:44:45.789Z,5.00
2023-03-07T11:47:35.468Z,4.00
2023-03-07T11:50:15.122Z,6.00
2023-03-07T11:53:00.671Z,3.00
2023-03-07T11:55:36.827Z,6.50
2023-03-07T11:58:09.281Z,10.00
2023-03-07T12:01:07.361Z,9.00
2023-03-07T12:04:12.607Z,5.25
2023-03-07T12:07:04.126Z,4.00
2023-03-07T12:09:36.755Z,5.00
2023-03-07T12:12:21.699Z,3.00
2023-03-07T12:15:17.781Z,7.00
2023-03-07T12:18:15.518Z,6.50
2023-03-07T12:21:11.588Z,5.00
2023-03-07T12:23:49.480Z,4.50
2023-03-07T12:26:21.246Z,5.25
2023-03-07T12:28:55.281Z,6.00
2023-03-07T12:31:34.666Z,6.00
2023-03-07T12:34:20.085Z,3.50
2023-03-07T12:36:50.209Z,6.25
2023-03-07T12:39:23.694Z,4.00
2023-03-07T12:42:00.178Z,3.00
2023-03-07T12:44:29.632Z,3.00
2023-03-07T12:47:40.106Z,4.00
2023-03-07T12:50:18.615Z,5.25
2023-03-07T12:53:00.381Z,2.00
2023-03-07T12:55:34.966Z,4.00
2023-03-07T12:58:27.625Z,3.50
2023-03-07T13:01:02.473Z,4.00
2023-03-07T13:03:42.492Z,3.25
2023-03-07T13:06:17.137Z,3.25
2023-03-07T13:08:48.257Z,4.00
2023-03-07T13:11:23.276Z,8.50
2023-03-07T13:14:00.882Z,3.75
2023-03-07T13:16:43.738Z,5.25
2023-03-07T13:19:35.931Z,6.00
2023-03-07T13:22:23.644Z,3.50
2023-03-07T13:25:00.256Z,5.25
2023-03-07T13:27:41.697Z,3.50
2023-03-07T13:30:08.442Z,2.50
2023-03-07T13:32:56.512Z,8.00
2023-03-07T13:35:32.074Z,4.00
2023-03-07T13:38:13.452Z,3.25
2023-03-07T13:40:42.404Z,2.50
2023-03-07T13:43:27.229Z,11.75
2023-03-07T13:45:55.101Z,15.00
2023-03-07T13:48:31.012Z,2.00
2023-03-07T13:51:00.542Z,9.00
2023-03-07T13:53:33.322Z,10.00
2023-03-07T13:56:15.286Z,12.33
2023-03-07T13:59:06.740Z,8.00
2023-03-07T14:01:39.594Z,7.25
2023-03-07T14:04:39.511Z,9.00
2023-03-07T14:07:16.638Z,10.25
2023-03-07T14:09:50.918Z,6.00
2023-03-07T14:12:43.697Z,5.00
2023-03-07T14:15:28.801Z,3.00
2023-03-07T14:18:11.072Z,2.75
2023-03-07T14:20:57.148Z,4.00
2023-03-07T14:24:01.650Z,1.00
2023-03-07T14:26:39.848Z,3.00
2023-03-07T14:29:22.437Z,6.00
2023-03-07T14:31:53.262Z,7.25
2023-03-07T14:34:26.814Z,4.00
2023-03-07T14:37:01.335Z,5.25
2023-03-07T14:39:59.320Z,2.75
2023-03-07T14:42:50.332Z,3.00
2023-03-07T14:45:28.873Z,4.00
2023-03-07T14:48:05.209Z,4.50
2023-03-07T14:50:32.841Z,4.25
2023-03-07T14:53:12.045Z,5.00
2023-03-07T14:55:40.982Z,4.00
2023-03-07T14:58:08.089Z,7.00
2023-03-07T15:00:36.269Z,4.00
2023-03-07T15:03:08.167Z,4.75
2023-03-07T15:05:50.981Z,8.00
2023-03-07T15:08:27.229Z,5.50
2023-03-07T15:11:11.236Z,7.75
2023-03-07T15:13:37.952Z,10.67
2023-03-07T15:16:10.125Z,10.33
2023-03-07T15:18:43.880Z,2.75
2023-03-07T15:21:20.560Z,6.50
2023-03-07T15:24:05.760Z,5.25
2023-03-07T15:26:33.311Z,4.25
2023-03-07T15:29:02.518Z,3.25
2023-03-07T15:31:31.899Z,4.50
2023-03-07T15:34:20.157Z,7.00
2023-03-07T15:36:47.067Z,5.50
2023-03-07T15:39:34.668Z,4.25
2023-03-07T15:42:08.138Z,8.33
2023-03-07T15:44:36.551Z,10.00
2023-03-07T15:47:15.083Z,5.25
2023-03-07T15:49:46.498Z,7.75
2023-03-07T15:52:23.252Z,10.00
2023-03-07T15:54:52.137Z,11.00
2023-03-07T15:57:26.139Z,10.67
2023-03-07T16:00:20.946Z,10.00
2023-03-07T16:02:49.804Z,9.00
2023-03-07T16:05:19.521Z,15.67
2023-03-07T16:07:47.471Z,11.00
2023-03-07T16:10:14.297Z,14.00
2023-03-07T16:12:46.333Z,10.00
2023-03-07T16:15:17.862Z,10.00
2023-03-07T16:17:46.030Z,9.00
2023-03-07T16:20:15.280Z,8.00
2023-03-07T16:22:44.245Z,15.00
2023-03-07T16:25:11.954Z,15.67
2023-03-07T16:27:39.614Z,13.67
2023-03-07T16:30:16.591Z,10.00
2023-03-07T16:32:43.706Z,10.00
2023-03-07T16:35:25.242Z,9.00
2023-03-07T16:37:53.819Z,14.33
2023-03-07T16:40:22.894Z,17.67
2023-03-07T16:42:50.756Z,18.00
2023-03-07T16:45:24.892Z,14.67
2023-03-07T16:47:53.510Z,23.00
2023-03-07T16:50:23.546Z,13.00
2023-03-07T16:52:50.392Z,13.00
2023-03-07T16:55:18.036Z,13.33
2023-03-07T16:57:55.012Z,17.00
2023-03-07T17:00:24.583Z,20.00
2023-03-07T17:02:53.919Z,19.00
2023-03-07T17:05:26.653Z,19.00
2023-03-07T17:07:55.508Z,14.00
2023-03-07T17:10:23.905Z,12.33
2023-03-07T17:12:50.923Z,22.67
2023-03-07T17:15:21.840Z,25.00
2023-03-07T17:17:48.991Z,27.25
2023-03-07T17:20:18.191Z,27.50
2023-03-07T17:22:45.367Z,25.25
2023-03-07T17:25:12.686Z,25.25
2023-03-07T17:27:46.688Z,23.00
2023-03-07T17:30:27.287Z,28.00
2023-03-07T17:32:54.897Z,26.00
2023-03-07T17:35:22.029Z,27.00
2023-03-07T17:37:51.447Z,26.50
2023-03-07T17:40:18.781Z,26.25
2023-03-07T17:42:45.673Z,24.00
2023-03-07T17:45:13.193Z,25.50
2023-03-07T17:47:41.229Z,25.00
2023-03-07T17:50:09.350Z,24.00
2023-03-07T17:52:36.402Z,23.25
2023-03-07T17:55:03.674Z,25.00
2023-03-07T17:57:30.569Z,22.67
2023-03-07T17:59:57.495Z,23.00
2023-03-07T18:02:24.338Z,34.25
2023-03-07T18:04:51.672Z,29.50
2023-03-07T18:07:19.776Z,38.50
2023-03-07T18:09:51.463Z,34.75
2023-03-07T18:12:20.400Z,41.00
2023-03-07T18:14:47.172Z,52.75
2023-03-07T18:17:14.010Z,58.00
2023-03-07T18:19:40.831Z,40.50
2023-03-07T18:22:08.167Z,54.75
2023-03-07T18:24:34.964Z,47.50
2023-03-07T18:27:03.334Z,36.75
2023-03-07T18:29:30.800Z,28.00
2023-03-07T18:31:57.802Z,29.00
2023-03-07T18:34:25.071Z,32.50
2023-03-07T18:36:53.142Z,32.50
2023-03-07T18:39:21.532Z,34.50
2023-03-07T18:41:49.312Z,56.25
2023-03-07T18:44:18.606Z,92.00
2023-03-07T18:46:46.110Z,86.25
2023-03-07T18:49:13.066Z,94.00
2023-03-07T18:51:40.310Z,85.50
2023-03-07T18:54:08.989Z,76.25
2023-03-07T18:56:35.816Z,28.00
2023-03-07T18:59:02.732Z,30.00
2023-03-07T19:01:31.957Z,40.00
2023-03-07T19:04:03.043Z,36.50
2023-03-07T19:06:39.269Z,33.25
2023-03-07T19:09:07.051Z,34.00
2023-03-07T19:11:35.938Z,35.00
2023-03-07T19:14:02.814Z,46.75
2023-03-07T19:16:29.908Z,34.00
2023-03-07T19:18:58.353Z,98.25
2023-03-07T19:21:27.269Z,65.25
2023-03-07T19:23:55.410Z,83.25
2023-03-07T19:26:23.285Z,72.50
2023-03-07T19:28:54.953Z,68.75
2023-03-07T19:31:24.453Z,76.50
2023-03-07T19:33:51.989Z,89.75
2023-03-07T19:36:21.617Z,63.75
2023-03-07T19:38:50.909Z,45.75
2023-03-07T19:41:20.889Z,64.25
2023-03-07T19:43:48.416Z,59.75
2023-03-07T19:46:17.439Z,51.25
2023-03-07T19:48:45.503Z,49.25
2023-03-07T19:51:15.573Z,59.00
2023-03-07T19:53:44.225Z,54.00
2023-03-07T19:56:14.118Z,56.25
2023-03-07T19:58:41.437Z,56.25
2023-03-07T20:01:10.748Z,51.50
2023-03-07T20:03:38.495Z,50.75
2023-03-07T20:06:07.552Z,76.75
2023-03-07T20:08:35.285Z,89.25
2023-03-07T20:11:12.215Z,85.75
2023-03-07T20:13:40.428Z,62.25
2023-03-07T20:16:10.320Z,80.50
2023-03-07T20:18:38.144Z,112.50
2023-03-07T20:21:07.799Z,102.00
2023-03-07T20:23:34.928Z,83.75
2023-03-07T20:26:13.939Z,91.75
2023-03-07T20:28:41.338Z,76.75
2023-03-07T20:31:09.988Z,87.00
2023-03-07T20:33:39.089Z,105.00
2023-03-07T20:36:09.388Z,100.25
2023-03-07T20:38:37.483Z,87.50
2023-03-07T20:41:11.657Z,72.75
2023-03-07T20:43:38.743Z,78.25
2023-03-07T20:46:12.900Z,84.50
2023-03-07T20:48:41.421Z,93.50
2023-03-07T20:51:21.010Z,97.50
2023-03-07T20:53:50.685Z,106.50
2023-03-07T20:56:21.496Z,86.75
2023-03-07T20:58:49.014Z,130.50
2023-03-07T21:01:17.989Z,106.00
2023-03-07T21:03:45.328Z,80.25
2023-03-07T21:06:12.557Z,87.25
2023-03-07T21:08:39.557Z,89.00
2023-03-07T21:11:08.721Z,73.25
2023-03-07T21:13:38.187Z,74.25
2023-03-07T21:16:07.924Z,85.00
2023-03-07T21:18:35.483Z,75.50
2023-03-07T21:21:05.943Z,80.25
2023-03-07T21:23:33.835Z,90.25
2023-03-07T21:26:03.627Z,88.75
2023-03-07T21:28:32.019Z,93.75
2023-03-07T21:31:07.532Z,57.50
2023-03-07T21:33:36.335Z,50.00
2023-03-07T21:36:05.061Z,77.50
2023-03-07T21:38:34.180Z,89.75
2023-03-07T21:41:01.758Z,71.75
2023-03-07T21:43:29.097Z,68.25
2023-03-07T21:45:56.431Z,67.50
2023-03-07T21:48:23.422Z,79.25
2023-03-07T21:50:51.942Z,92.50
2023-03-07T21:53:19.345Z,82.25
2023-03-07T21:55:56.918Z,66.00
2023-03-07T21:58:24.850Z,93.75
2023-03-07T22:00:52.701Z,53.00
2023-03-07T22:03:20.484Z,60.75
2023-03-07T22:05:47.310Z,83.50
2023-03-07T22:08:16.046Z,94.25
2023-03-07T22:10:43.304Z,86.25
2023-03-07T22:13:11.072Z,88.25
2023-03-07T22:15:41.035Z,83.25
2023-03-07T22:18:07.929Z,41.25
2023-03-07T22:20:34.869Z,61.00
2023-03-07T22:23:01.723Z,67.00
2023-03-07T22:25:28.593Z,53.75
2023-03-07T22:27:55.385Z,51.00
2023-03-07T22:30:22.548Z,69.75
2023-03-07T22:32:49.327Z,69.25
2023-03-07T22:35:16.212Z,86.00
2023-03-07T22:37:43.021Z,79.25
2023-03-07T22:40:10.610Z,92.25
2023-03-07T22:42:37.408Z,88.75
2023-03-07T22:45:04.640Z,75.50
2023-03-07T22:47:31.488Z,61.25
2023-03-07T22:49:58.259Z,47.00
2023-03-07T22:52:25.471Z,43.00
2023-03-07T22:54:54.481Z,45.50
2023-03-07T22:57:21.625Z,48.25
2023-03-07T22:59:49.075Z,43.25
2023-03-07T23:02:15.958Z,47.25
2023-03-07T23:04:42.938Z,54.75
2023-03-07T23:07:09.790Z,54.25
2023-03-07T23:09:36.662Z,41.25
2023-03-07T23:12:03.509Z,43.00
2023-03-07T23:14:30.367Z,38.75
2023-03-07T23:16:57.191Z,43.00
2023-03-07T23:19:24.042Z,43.00
2023-03-07T23:21:50.790Z,42.75
2023-03-07T23:24:17.637Z,49.25
2023-03-07T23:26:44.379Z,45.25
2023-03-07T23:29:11.771Z,48.25
2023-03-07T23:31:40.487Z,54.75
2023-03-07T23:34:16.753Z,49.25
2023-03-07T23:36:43.758Z,44.25
2023-03-07T23:39:11.188Z,51.75
2023-03-07T23:41:38.073Z,41.75
2023-03-07T23:44:05.005Z,35.50
2023-03-07T23:46:31.874Z,43.00
2023-03-07T23:48:58.663Z,43.25
2023-03-07T23:51:25.558Z,54.50
2023-03-07T23:53:52.588Z,70.00
2023-03-07T23:56:19.649Z,67.00
2023-03-07T23:58:52.114Z,70.00
